sensor_id;sensor_type;location;lat;lon;timestamp;pressure;altitude;pressure_sealevel;temperature;humidity
16544;BME280;8384;47.996;7.786;2023-02-12T00:01:41;100741.09;;;-0.07;80.00
16544;BME280;8384;47.996;7.786;2023-02-12T00:04:06;100734.03;;;-0.18;80.04
16544;BME280;8384;47.996;7.786;2023-02-12T00:06:31;100730.22;;;-0.35;81.47
16544;BME280;8384;47.996;7.786;2023-02-12T00:08:57;100725.50;;;-0.63;81.78
16544;BME280;8384;47.996;7.786;2023-02-12T00:11:25;100743.34;;;-0.52;82.51
16544;BME280;8384;47.996;7.786;2023-02-12T00:13:51;100739.66;;;-0.51;83.02
16544;BME280;8384;47.996;7.786;2023-02-12T00:16:19;100743.91;;;-0.48;82.16
16544;BME280;8384;47.996;7.786;2023-02-12T00:18:45;100735.97;;;-0.69;83.46
16544;BME280;8384;47.996;7.786;2023-02-12T00:21:11;100721.81;;;-0.81;83.25
16544;BME280;8384;47.996;7.786;2023-02-12T00:23:38;100726.34;;;-0.82;84.80
16544;BME280;8384;47.996;7.786;2023-02-12T00:26:06;100725.91;;;-0.77;84.01
16544;BME280;8384;47.996;7.786;2023-02-12T00:28:31;100724.19;;;-0.98;84.58
16544;BME280;8384;47.996;7.786;2023-02-12T00:30:57;100711.56;;;-1.07;84.91
16544;BME280;8384;47.996;7.786;2023-02-12T00:33:22;100728.56;;;-0.97;84.26
16544;BME280;8384;47.996;7.786;2023-02-12T00:35:57;100736.28;;;-1.03;84.50
16544;BME280;8384;47.996;7.786;2023-02-12T00:38:23;100729.31;;;-1.26;84.87
16544;BME280;8384;47.996;7.786;2023-02-12T00:40:48;100729.81;;;-1.01;84.99
16544;BME280;8384;47.996;7.786;2023-02-12T00:43:14;100725.41;;;-1.12;83.96
16544;BME280;8384;47.996;7.786;2023-02-12T00:45:39;100732.94;;;-0.96;83.95
16544;BME280;8384;47.996;7.786;2023-02-12T00:48:04;100717.75;;;-1.16;83.77
16544;BME280;8384;47.996;7.786;2023-02-12T00:50:30;100724.25;;;-1.19;83.71
16544;BME280;8384;47.996;7.786;2023-02-12T00:52:55;100726.91;;;-1.29;84.51
16544;BME280;8384;47.996;7.786;2023-02-12T00:55:20;100744.03;;;-1.10;84.55
16544;BME280;8384;47.996;7.786;2023-02-12T00:57:45;100740.50;;;-1.21;84.55
16544;BME280;8384;47.996;7.786;2023-02-12T01:00:12;100719.53;;;-1.37;85.05
16544;BME280;8384;47.996;7.786;2023-02-12T01:02:37;100739.91;;;-1.24;85.05
16544;BME280;8384;47.996;7.786;2023-02-12T01:05:03;100732.97;;;-1.27;85.28
16544;BME280;8384;47.996;7.786;2023-02-12T01:07:28;100733.69;;;-1.25;84.88
16544;BME280;8384;47.996;7.786;2023-02-12T01:09:53;100726.00;;;-1.39;85.06
16544;BME280;8384;47.996;7.786;2023-02-12T01:12:19;100728.38;;;-1.46;85.25
16544;BME280;8384;47.996;7.786;2023-02-12T01:14:44;100741.41;;;-1.31;85.03
16544;BME280;8384;47.996;7.786;2023-02-12T01:17:09;100732.72;;;-1.24;84.36
16544;BME280;8384;47.996;7.786;2023-02-12T01:19:34;100738.38;;;-1.17;84.30
16544;BME280;8384;47.996;7.786;2023-02-12T01:22:00;100731.63;;;-1.01;83.91
16544;BME280;8384;47.996;7.786;2023-02-12T01:24:25;100724.00;;;-1.06;83.26
16544;BME280;8384;47.996;7.786;2023-02-12T01:26:50;100709.78;;;-0.97;83.08
16544;BME280;8384;47.996;7.786;2023-02-12T01:29:15;100730.69;;;-0.91;83.17
16544;BME280;8384;47.996;7.786;2023-02-12T01:31:41;100732.09;;;-0.96;83.27
16544;BME280;8384;47.996;7.786;2023-02-12T01:34:07;100696.53;;;-1.29;83.93
16544;BME280;8384;47.996;7.786;2023-02-12T01:36:32;100703.94;;;-1.53;84.92
16544;BME280;8384;47.996;7.786;2023-02-12T01:38:58;100713.13;;;-1.76;87.02
16544;BME280;8384;47.996;7.786;2023-02-12T01:41:27;100711.88;;;-1.93;88.60
16544;BME280;8384;47.996;7.786;2023-02-12T01:44:12;100723.78;;;-1.86;88.85
16544;BME280;8384;47.996;7.786;2023-02-12T01:46:40;100720.63;;;-2.13;89.15
16544;BME280;8384;47.996;7.786;2023-02-12T01:49:10;100725.34;;;-2.26;91.09
16544;BME280;8384;47.996;7.786;2023-02-12T01:51:36;100725.59;;;-2.08;91.17
16544;BME280;8384;47.996;7.786;2023-02-12T01:54:05;100729.16;;;-1.86;89.54
16544;BME280;8384;47.996;7.786;2023-02-12T01:56:32;100729.63;;;-1.71;89.03
16544;BME280;8384;47.996;7.786;2023-02-12T01:58:57;100733.03;;;-1.69;87.80
16544;BME280;8384;47.996;7.786;2023-02-12T02:01:28;100702.00;;;-2.35;89.46
16544;BME280;8384;47.996;7.786;2023-02-12T02:03:58;100710.59;;;-2.53;91.07
16544;BME280;8384;47.996;7.786;2023-02-12T02:06:33;100715.16;;;-2.44;92.01
16544;BME280;8384;47.996;7.786;2023-02-12T02:08:59;100717.41;;;-2.28;91.23
16544;BME280;8384;47.996;7.786;2023-02-12T02:11:25;100698.09;;;-1.89;89.05
16544;BME280;8384;47.996;7.786;2023-02-12T02:14:09;100715.09;;;-2.00;88.98
16544;BME280;8384;47.996;7.786;2023-02-12T02:17:05;100699.06;;;-2.32;89.85
16544;BME280;8384;47.996;7.786;2023-02-12T02:22:35;100723.25;;;-2.22;89.43
16544;BME280;8384;47.996;7.786;2023-02-12T02:31:03;100731.50;;;-2.14;88.60
16544;BME280;8384;47.996;7.786;2023-02-12T02:36:43;100694.94;;;-2.36;88.13
16544;BME280;8384;47.996;7.786;2023-02-12T02:42:30;100724.69;;;-2.51;90.42
16544;BME280;8384;47.996;7.786;2023-02-12T02:45:18;100714.81;;;-2.39;90.83
16544;BME280;8384;47.996;7.786;2023-02-12T02:47:49;100730.16;;;-2.20;90.25
16544;BME280;8384;47.996;7.786;2023-02-12T02:50:18;100710.56;;;-2.20;89.32
16544;BME280;8384;47.996;7.786;2023-02-12T02:52:51;100704.78;;;-2.37;90.06
16544;BME280;8384;47.996;7.786;2023-02-12T02:55:19;100703.91;;;-2.59;91.41
16544;BME280;8384;47.996;7.786;2023-02-12T02:57:54;100709.50;;;-2.62;91.90
16544;BME280;8384;47.996;7.786;2023-02-12T03:00:26;100721.56;;;-2.56;92.43
16544;BME280;8384;47.996;7.786;2023-02-12T03:02:55;100709.41;;;-2.60;92.57
16544;BME280;8384;47.996;7.786;2023-02-12T03:05:31;100710.47;;;-2.51;92.18
16544;BME280;8384;47.996;7.786;2023-02-12T03:08:28;100715.81;;;-2.51;91.76
16544;BME280;8384;47.996;7.786;2023-02-12T03:11:15;100719.13;;;-2.59;91.68
16544;BME280;8384;47.996;7.786;2023-02-12T03:16:22;100725.22;;;-2.57;92.11
16544;BME280;8384;47.996;7.786;2023-02-12T03:18:54;100718.75;;;-2.54;91.89
16544;BME280;8384;47.996;7.786;2023-02-12T03:21:27;100715.84;;;-2.63;92.42
16544;BME280;8384;47.996;7.786;2023-02-12T03:24:03;100690.59;;;-2.81;92.21
16544;BME280;8384;47.996;7.786;2023-02-12T03:26:39;100711.47;;;-2.64;93.78
16544;BME280;8384;47.996;7.786;2023-02-12T03:29:06;100711.81;;;-2.57;93.65
16544;BME280;8384;47.996;7.786;2023-02-12T03:31:37;100713.00;;;-2.50;93.10
16544;BME280;8384;47.996;7.786;2023-02-12T03:37:08;100700.59;;;-2.51;93.05
16544;BME280;8384;47.996;7.786;2023-02-12T03:42:08;100698.81;;;-2.62;92.94
16544;BME280;8384;47.996;7.786;2023-02-12T03:45:36;100704.16;;;-2.62;93.47
16544;BME280;8384;47.996;7.786;2023-02-12T03:47:53;100705.28;;;-2.64;92.90
16544;BME280;8384;47.996;7.786;2023-02-12T03:50:32;100717.94;;;-2.66;93.07
16544;BME280;8384;47.996;7.786;2023-02-12T03:53:01;100700.09;;;-2.77;93.59
16544;BME280;8384;47.996;7.786;2023-02-12T03:55:26;100694.25;;;-2.82;94.26
16544;BME280;8384;47.996;7.786;2023-02-12T03:57:59;100720.44;;;-2.53;95.18
16544;BME280;8384;47.996;7.786;2023-02-12T04:00:26;100721.66;;;-2.46;93.96
16544;BME280;8384;47.996;7.786;2023-02-12T04:02:52;100696.41;;;-2.65;94.02
16544;BME280;8384;47.996;7.786;2023-02-12T04:05:23;100733.34;;;-2.59;93.55
16544;BME280;8384;47.996;7.786;2023-02-12T04:07:51;100714.78;;;-2.72;94.49
16544;BME280;8384;47.996;7.786;2023-02-12T04:10:17;100716.78;;;-2.85;95.27
16544;BME280;8384;47.996;7.786;2023-02-12T04:12:53;100699.28;;;-3.01;96.08
16544;BME280;8384;47.996;7.786;2023-02-12T04:15:31;100712.41;;;-2.97;96.83
16544;BME280;8384;47.996;7.786;2023-02-12T04:18:09;100714.25;;;-3.09;98.20
16544;BME280;8384;47.996;7.786;2023-02-12T04:31:37;100727.09;;;-2.80;98.06
16544;BME280;8384;47.996;7.786;2023-02-12T04:34:13;100714.19;;;-2.75;96.44
16544;BME280;8384;47.996;7.786;2023-02-12T04:36:55;100729.84;;;-2.59;95.75
16544;BME280;8384;47.996;7.786;2023-02-12T04:39:26;100708.03;;;-2.54;93.66
16544;BME280;8384;47.996;7.786;2023-02-12T04:41:53;100721.13;;;-2.40;92.74
16544;BME280;8384;47.996;7.786;2023-02-12T04:44:22;100726.75;;;-2.22;91.52
16544;BME280;8384;47.996;7.786;2023-02-12T04:46:49;100728.13;;;-2.28;91.44
16544;BME280;8384;47.996;7.786;2023-02-12T04:49:16;100722.13;;;-2.41;91.51
16544;BME280;8384;47.996;7.786;2023-02-12T04:51:42;100716.06;;;-2.54;91.88
16544;BME280;8384;47.996;7.786;2023-02-12T04:54:07;100719.13;;;-2.59;91.87
16544;BME280;8384;47.996;7.786;2023-02-12T04:56:33;100725.63;;;-2.41;92.07
16544;BME280;8384;47.996;7.786;2023-02-12T04:58:58;100730.41;;;-2.44;91.45
16544;BME280;8384;47.996;7.786;2023-02-12T05:01:24;100729.75;;;-2.36;91.47
16544;BME280;8384;47.996;7.786;2023-02-12T05:03:50;100721.22;;;-2.30;91.01
16544;BME280;8384;47.996;7.786;2023-02-12T05:06:16;100715.91;;;-2.42;90.77
16544;BME280;8384;47.996;7.786;2023-02-12T05:08:41;100724.19;;;-2.45;90.49
16544;BME280;8384;47.996;7.786;2023-02-12T05:11:08;100714.34;;;-2.44;91.42
16544;BME280;8384;47.996;7.786;2023-02-12T05:13:34;100679.47;;;-2.65;91.18
16544;BME280;8384;47.996;7.786;2023-02-12T05:16:02;100706.03;;;-2.41;91.14
16544;BME280;8384;47.996;7.786;2023-02-12T05:18:29;100706.88;;;-2.41;90.60
16544;BME280;8384;47.996;7.786;2023-02-12T05:20:58;100708.25;;;-2.46;90.26
16544;BME280;8384;47.996;7.786;2023-02-12T05:23:32;100705.34;;;-2.54;90.42
16544;BME280;8384;47.996;7.786;2023-02-12T05:25:58;100684.84;;;-2.77;90.78
16544;BME280;8384;47.996;7.786;2023-02-12T05:28:24;100718.91;;;-2.67;90.67
16544;BME280;8384;47.996;7.786;2023-02-12T05:30:49;100696.44;;;-2.76;90.59
16544;BME280;8384;47.996;7.786;2023-02-12T05:33:15;100705.78;;;-2.71;90.63
16544;BME280;8384;47.996;7.786;2023-02-12T05:35:40;100713.22;;;-2.74;91.35
16544;BME280;8384;47.996;7.786;2023-02-12T05:38:05;100705.56;;;-2.79;91.31
16544;BME280;8384;47.996;7.786;2023-02-12T05:40:30;100704.56;;;-2.78;91.18
16544;BME280;8384;47.996;7.786;2023-02-12T05:42:56;100707.38;;;-2.79;90.95
16544;BME280;8384;47.996;7.786;2023-02-12T05:45:21;100700.81;;;-2.87;91.34
16544;BME280;8384;47.996;7.786;2023-02-12T05:47:52;100686.44;;;-3.29;92.56
16544;BME280;8384;47.996;7.786;2023-02-12T05:50:17;100699.78;;;-3.29;93.95
16544;BME280;8384;47.996;7.786;2023-02-12T05:52:42;100670.78;;;-3.45;94.80
16544;BME280;8384;47.996;7.786;2023-02-12T05:55:07;100696.16;;;-3.17;94.95
16544;BME280;8384;47.996;7.786;2023-02-12T05:57:33;100699.66;;;-3.17;94.69
16544;BME280;8384;47.996;7.786;2023-02-12T05:59:58;100685.09;;;-3.24;95.29
16544;BME280;8384;47.996;7.786;2023-02-12T06:02:23;100703.41;;;-2.96;94.71
16544;BME280;8384;47.996;7.786;2023-02-12T06:04:49;100703.94;;;-3.14;93.51
16544;BME280;8384;47.996;7.786;2023-02-12T06:07:14;100688.81;;;-2.92;93.57
16544;BME280;8384;47.996;7.786;2023-02-12T06:09:39;100708.06;;;-2.33;92.06
16544;BME280;8384;47.996;7.786;2023-02-12T06:12:04;100704.59;;;-2.24;90.79
16544;BME280;8384;47.996;7.786;2023-02-12T06:14:30;100707.75;;;-2.40;90.91
16544;BME280;8384;47.996;7.786;2023-02-12T06:16:55;100708.63;;;-2.51;91.84
16544;BME280;8384;47.996;7.786;2023-02-12T06:19:20;100693.38;;;-2.72;91.90
16544;BME280;8384;47.996;7.786;2023-02-12T06:21:46;100717.41;;;-2.93;93.29
16544;BME280;8384;47.996;7.786;2023-02-12T06:24:12;100714.72;;;-3.04;94.47
16544;BME280;8384;47.996;7.786;2023-02-12T06:26:38;100693.22;;;-3.25;95.32
16544;BME280;8384;47.996;7.786;2023-02-12T06:29:03;100690.94;;;-3.30;95.72
16544;BME280;8384;47.996;7.786;2023-02-12T06:31:31;100707.13;;;-3.43;96.68
16544;BME280;8384;47.996;7.786;2023-02-12T06:33:59;100676.72;;;-3.87;98.23
16544;BME280;8384;47.996;7.786;2023-02-12T06:36:25;100693.09;;;-3.92;99.28
16544;BME280;8384;47.996;7.786;2023-02-12T06:38:51;100710.50;;;-3.64;99.78
16544;BME280;8384;47.996;7.786;2023-02-12T06:41:17;100684.28;;;-3.58;99.13
16544;BME280;8384;47.996;7.786;2023-02-12T06:43:42;100709.31;;;-3.37;98.87
16544;BME280;8384;47.996;7.786;2023-02-12T06:46:08;100707.56;;;-3.15;97.72
16544;BME280;8384;47.996;7.786;2023-02-12T06:48:34;100705.88;;;-3.05;96.22
16544;BME280;8384;47.996;7.786;2023-02-12T06:51:16;100706.84;;;-3.06;96.13
16544;BME280;8384;47.996;7.786;2023-02-12T06:53:42;100706.47;;;-3.12;96.17
16544;BME280;8384;47.996;7.786;2023-02-12T06:56:09;100704.41;;;-3.09;95.93
16544;BME280;8384;47.996;7.786;2023-02-12T06:58:36;100696.50;;;-2.99;96.12
16544;BME280;8384;47.996;7.786;2023-02-12T07:01:10;100711.69;;;-2.99;95.33
16544;BME280;8384;47.996;7.786;2023-02-12T07:03:39;100690.56;;;-3.14;95.35
16544;BME280;8384;47.996;7.786;2023-02-12T07:06:05;100710.47;;;-2.95;95.61
16544;BME280;8384;47.996;7.786;2023-02-12T07:08:30;100716.78;;;-2.96;94.88
16544;BME280;8384;47.996;7.786;2023-02-12T07:10:55;100722.03;;;-2.95;95.05
16544;BME280;8384;47.996;7.786;2023-02-12T07:13:21;100730.41;;;-2.88;95.13
16544;BME280;8384;47.996;7.786;2023-02-12T07:15:46;100690.75;;;-2.94;95.13
16544;BME280;8384;47.996;7.786;2023-02-12T07:18:11;100711.38;;;-2.74;94.99
16544;BME280;8384;47.996;7.786;2023-02-12T07:20:36;100729.19;;;-2.51;94.50
16544;BME280;8384;47.996;7.786;2023-02-12T07:23:02;100704.63;;;-2.57;94.47
16544;BME280;8384;47.996;7.786;2023-02-12T07:25:27;100706.84;;;-2.62;95.48
16544;BME280;8384;47.996;7.786;2023-02-12T07:27:52;100696.75;;;-2.69;95.38
16544;BME280;8384;47.996;7.786;2023-02-12T07:30:18;100723.97;;;-2.20;95.14
16544;BME280;8384;47.996;7.786;2023-02-12T07:32:43;100724.03;;;-2.11;94.37
16544;BME280;8384;47.996;7.786;2023-02-12T07:35:09;100708.16;;;-2.02;94.13
16544;BME280;8384;47.996;7.786;2023-02-12T07:37:34;100728.28;;;-1.87;93.55
16544;BME280;8384;47.996;7.786;2023-02-12T07:39:59;100732.78;;;-1.66;93.27
16544;BME280;8384;47.996;7.786;2023-02-12T07:42:24;100746.56;;;-1.49;92.32
16544;BME280;8384;47.996;7.786;2023-02-12T07:44:50;100754.00;;;-1.32;91.97
16544;BME280;8384;47.996;7.786;2023-02-12T07:47:15;100740.31;;;-1.29;91.07
16544;BME280;8384;47.996;7.786;2023-02-12T07:49:40;100740.75;;;-1.24;90.80
16544;BME280;8384;47.996;7.786;2023-02-12T07:52:06;100744.75;;;-1.08;90.58
16544;BME280;8384;47.996;7.786;2023-02-12T07:54:31;100740.00;;;-1.36;90.13
16544;BME280;8384;47.996;7.786;2023-02-12T07:56:57;100736.38;;;-1.25;90.29
16544;BME280;8384;47.996;7.786;2023-02-12T07:59:22;100739.84;;;-1.03;89.52
16544;BME280;8384;47.996;7.786;2023-02-12T08:01:49;100730.28;;;-0.96;88.39
16544;BME280;8384;47.996;7.786;2023-02-12T08:04:17;100716.28;;;-0.89;88.58
16544;BME280;8384;47.996;7.786;2023-02-12T08:06:45;100739.53;;;-0.59;88.73
16544;BME280;8384;47.996;7.786;2023-02-12T08:09:16;100711.41;;;-0.45;87.93
16544;BME280;8384;47.996;7.786;2023-02-12T08:11:42;100741.66;;;-0.13;87.81
16544;BME280;8384;47.996;7.786;2023-02-12T08:14:10;100747.00;;;0.16;86.56
16544;BME280;8384;47.996;7.786;2023-02-12T08:16:38;100751.78;;;0.52;84.24
16544;BME280;8384;47.996;7.786;2023-02-12T08:19:03;100746.38;;;0.52;83.90
16544;BME280;8384;47.996;7.786;2023-02-12T08:21:28;100756.63;;;0.76;84.20
16544;BME280;8384;47.996;7.786;2023-02-12T08:23:56;100752.22;;;1.13;82.26
16544;BME280;8384;47.996;7.786;2023-02-12T08:26:28;100753.50;;;1.37;80.67
16544;BME280;8384;47.996;7.786;2023-02-12T08:28:57;100749.53;;;1.77;77.10
16544;BME280;8384;47.996;7.786;2023-02-12T08:31:25;100757.81;;;1.47;78.44
16544;BME280;8384;47.996;7.786;2023-02-12T08:33:52;100753.66;;;1.35;79.72
16544;BME280;8384;47.996;7.786;2023-02-12T08:36:20;100723.16;;;1.53;79.17
16544;BME280;8384;47.996;7.786;2023-02-12T08:38:47;100759.22;;;2.06;76.77
16544;BME280;8384;47.996;7.786;2023-02-12T08:41:23;100735.84;;;2.15;76.20
16544;BME280;8384;47.996;7.786;2023-02-12T08:43:51;100751.22;;;1.96;77.51
16544;BME280;8384;47.996;7.786;2023-02-12T08:46:27;100756.69;;;1.86;78.20
16544;BME280;8384;47.996;7.786;2023-02-12T08:49:16;100744.97;;;1.59;79.18
16544;BME280;8384;47.996;7.786;2023-02-12T08:51:46;100745.22;;;1.84;79.02
16544;BME280;8384;47.996;7.786;2023-02-12T08:54:19;100711.00;;;1.67;78.84
16544;BME280;8384;47.996;7.786;2023-02-12T08:56:45;100734.22;;;2.48;77.67
16544;BME280;8384;47.996;7.786;2023-02-12T08:59:11;100731.78;;;2.63;75.99
16544;BME280;8384;47.996;7.786;2023-02-12T09:01:38;100717.28;;;2.64;74.92
16544;BME280;8384;47.996;7.786;2023-02-12T09:04:06;100736.44;;;2.53;76.31
16544;BME280;8384;47.996;7.786;2023-02-12T09:06:33;100730.16;;;2.70;75.77
16544;BME280;8384;47.996;7.786;2023-02-12T09:08:59;100749.50;;;2.92;74.44
16544;BME280;8384;47.996;7.786;2023-02-12T09:11:27;100681.59;;;2.87;73.42
16544;BME280;8384;47.996;7.786;2023-02-12T09:13:58;100729.56;;;3.36;73.11
16544;BME280;8384;47.996;7.786;2023-02-12T09:16:24;100724.97;;;3.28;72.85
16544;BME280;8384;47.996;7.786;2023-02-12T09:18:49;100728.94;;;3.67;72.51
16544;BME280;8384;47.996;7.786;2023-02-12T09:21:15;100732.75;;;3.40;73.48
16544;BME280;8384;47.996;7.786;2023-02-12T09:23:42;100718.38;;;3.31;73.42
16544;BME280;8384;47.996;7.786;2023-02-12T09:26:09;100729.84;;;3.17;74.14
16544;BME280;8384;47.996;7.786;2023-02-12T09:28:36;100731.78;;;3.49;73.53
16544;BME280;8384;47.996;7.786;2023-02-12T09:31:15;100722.97;;;3.30;72.11
16544;BME280;8384;47.996;7.786;2023-02-12T09:33:41;100720.44;;;3.45;73.30
16544;BME280;8384;47.996;7.786;2023-02-12T09:36:10;100729.88;;;3.33;73.07
16544;BME280;8384;47.996;7.786;2023-02-12T09:38:36;100719.25;;;3.40;72.62
16544;BME280;8384;47.996;7.786;2023-02-12T09:41:29;100725.22;;;3.60;73.00
16544;BME280;8384;47.996;7.786;2023-02-12T09:44:06;100722.22;;;3.96;70.37
16544;BME280;8384;47.996;7.786;2023-02-12T09:49:22;100699.22;;;3.92;71.26
16544;BME280;8384;47.996;7.786;2023-02-12T09:51:51;100712.03;;;3.98;69.80
16544;BME280;8384;47.996;7.786;2023-02-12T09:54:24;100697.25;;;4.42;68.52
16544;BME280;8384;47.996;7.786;2023-02-12T09:56:56;100740.66;;;4.90;66.93
16544;BME280;8384;47.996;7.786;2023-02-12T09:59:39;100735.38;;;4.97;65.95
16544;BME280;8384;47.996;7.786;2023-02-12T10:02:12;100721.22;;;4.70;67.13
16544;BME280;8384;47.996;7.786;2023-02-12T10:04:38;100737.31;;;5.20;65.28
16544;BME280;8384;47.996;7.786;2023-02-12T10:07:25;100712.09;;;4.71;66.01
16544;BME280;8384;47.996;7.786;2023-02-12T10:10:01;100729.59;;;5.00;66.25
16544;BME280;8384;47.996;7.786;2023-02-12T10:18:33;100718.72;;;5.40;64.38
16544;BME280;8384;47.996;7.786;2023-02-12T10:21:05;100722.69;;;5.29;64.23
16544;BME280;8384;47.996;7.786;2023-02-12T10:26:29;100721.41;;;6.18;60.69
16544;BME280;8384;47.996;7.786;2023-02-12T10:28:58;100709.16;;;5.99;60.88
16544;BME280;8384;47.996;7.786;2023-02-12T10:31:36;100730.91;;;6.37;59.30
16544;BME280;8384;47.996;7.786;2023-02-12T10:34:14;100718.13;;;5.99;60.74
16544;BME280;8384;47.996;7.786;2023-02-12T10:36:47;100730.44;;;6.34;59.49
16544;BME280;8384;47.996;7.786;2023-02-12T10:39:22;100735.06;;;6.10;61.16
16544;BME280;8384;47.996;7.786;2023-02-12T10:42:18;100724.28;;;6.55;58.65
16544;BME280;8384;47.996;7.786;2023-02-12T10:44:45;100733.94;;;7.02;57.79
16544;BME280;8384;47.996;7.786;2023-02-12T10:47:21;100711.13;;;7.55;56.61
16544;BME280;8384;47.996;7.786;2023-02-12T10:49:56;100712.38;;;7.96;53.97
16544;BME280;8384;47.996;7.786;2023-02-12T10:52:46;100715.38;;;7.79;55.21
16544;BME280;8384;47.996;7.786;2023-02-12T10:55:30;100719.53;;;8.25;54.10
16544;BME280;8384;47.996;7.786;2023-02-12T10:57:57;100726.31;;;7.86;55.24
16544;BME280;8384;47.996;7.786;2023-02-12T11:00:31;100714.97;;;7.09;55.84
16544;BME280;8384;47.996;7.786;2023-02-12T11:03:28;100715.38;;;7.79;55.37
16544;BME280;8384;47.996;7.786;2023-02-12T11:05:53;100715.66;;;6.81;57.83
16544;BME280;8384;47.996;7.786;2023-02-12T11:08:27;100701.75;;;7.79;55.94
16544;BME280;8384;47.996;7.786;2023-02-12T11:10:53;100705.81;;;7.69;54.70
16544;BME280;8384;47.996;7.786;2023-02-12T11:13:25;100698.06;;;7.29;55.51
16544;BME280;8384;47.996;7.786;2023-02-12T11:15:52;100692.47;;;7.15;56.64
16544;BME280;8384;47.996;7.786;2023-02-12T11:18:25;100685.59;;;7.78;55.09
16544;BME280;8384;47.996;7.786;2023-02-12T11:21:09;100689.50;;;7.90;54.67
16544;BME280;8384;47.996;7.786;2023-02-12T11:23:42;100674.13;;;8.04;53.81
16544;BME280;8384;47.996;7.786;2023-02-12T11:28:56;100676.59;;;7.77;54.45
16544;BME280;8384;47.996;7.786;2023-02-12T11:31:27;100681.16;;;8.20;54.24
16544;BME280;8384;47.996;7.786;2023-02-12T11:36:50;100651.13;;;8.14;54.96
16544;BME280;8384;47.996;7.786;2023-02-12T11:39:27;100666.81;;;8.11;54.57
16544;BME280;8384;47.996;7.786;2023-02-12T11:41:59;100669.16;;;8.78;53.11
16544;BME280;8384;47.996;7.786;2023-02-12T11:44:36;100651.88;;;8.58;52.58
16544;BME280;8384;47.996;7.786;2023-02-12T11:47:05;100664.53;;;8.44;53.25
16544;BME280;8384;47.996;7.786;2023-02-12T11:49:38;100660.19;;;9.40;51.59
16544;BME280;8384;47.996;7.786;2023-02-12T11:52:05;100654.19;;;8.61;53.19
16544;BME280;8384;47.996;7.786;2023-02-12T11:54:40;100649.50;;;8.90;52.98
16544;BME280;8384;47.996;7.786;2023-02-12T11:58:00;100649.00;;;9.28;51.15
16544;BME280;8384;47.996;7.786;2023-02-12T12:00:22;100627.03;;;9.56;50.11
16544;BME280;8384;47.996;7.786;2023-02-12T12:03:27;100650.91;;;9.34;50.52
16544;BME280;8384;47.996;7.786;2023-02-12T12:06:00;100629.75;;;9.70;50.23
16544;BME280;8384;47.996;7.786;2023-02-12T12:08:34;100623.22;;;9.44;50.35
16544;BME280;8384;47.996;7.786;2023-02-12T12:11:15;100645.03;;;9.44;52.08
16544;BME280;8384;47.996;7.786;2023-02-12T12:13:47;100641.84;;;9.13;50.67
16544;BME280;8384;47.996;7.786;2023-02-12T12:16:19;100641.59;;;9.02;51.59
16544;BME280;8384;47.996;7.786;2023-02-12T12:19:15;100635.34;;;9.14;51.80
16544;BME280;8384;47.996;7.786;2023-02-12T12:22:13;100632.88;;;9.40;51.76
16544;BME280;8384;47.996;7.786;2023-02-12T12:24:52;100627.22;;;9.82;50.97
16544;BME280;8384;47.996;7.786;2023-02-12T12:30:21;100628.53;;;9.93;50.44
16544;BME280;8384;47.996;7.786;2023-02-12T12:32:51;100620.94;;;9.88;50.63
16544;BME280;8384;47.996;7.786;2023-02-12T12:35:24;100640.91;;;9.95;51.22
16544;BME280;8384;47.996;7.786;2023-02-12T12:43:47;100616.31;;;9.82;50.45
16544;BME280;8384;47.996;7.786;2023-02-12T12:46:54;100612.94;;;10.13;50.40
16544;BME280;8384;47.996;7.786;2023-02-12T12:52:19;100606.63;;;10.06;51.19
16544;BME280;8384;47.996;7.786;2023-02-12T12:58:06;100607.00;;;10.50;51.60
16544;BME280;8384;47.996;7.786;2023-02-12T13:06:16;100598.28;;;10.80;50.24
16544;BME280;8384;47.996;7.786;2023-02-12T13:14:50;100583.06;;;10.45;52.02
16544;BME280;8384;47.996;7.786;2023-02-12T13:20:10;100567.50;;;10.39;52.53
16544;BME280;8384;47.996;7.786;2023-02-12T13:23:04;100561.59;;;11.27;51.59
16544;BME280;8384;47.996;7.786;2023-02-12T13:28:32;100586.63;;;11.30;49.91
16544;BME280;8384;47.996;7.786;2023-02-12T13:31:00;100560.47;;;11.02;51.24
16544;BME280;8384;47.996;7.786;2023-02-12T13:33:42;100579.75;;;11.21;52.33
16544;BME280;8384;47.996;7.786;2023-02-12T13:36:12;100573.63;;;10.87;53.04
16544;BME280;8384;47.996;7.786;2023-02-12T13:38:42;100574.63;;;10.47;54.84
16544;BME280;8384;47.996;7.786;2023-02-12T13:41:10;100545.19;;;10.35;54.92
16544;BME280;8384;47.996;7.786;2023-02-12T13:46:50;100565.91;;;11.41;53.07
16544;BME280;8384;47.996;7.786;2023-02-12T13:52:25;100535.09;;;10.43;55.15
16544;BME280;8384;47.996;7.786;2023-02-12T13:55:12;100543.09;;;10.44;55.99
16544;BME280;8384;47.996;7.786;2023-02-12T13:57:42;100556.44;;;10.00;57.58
16544;BME280;8384;47.996;7.786;2023-02-12T14:03:11;100525.88;;;10.24;57.94
16544;BME280;8384;47.996;7.786;2023-02-12T14:05:37;100532.41;;;10.82;56.64
16544;BME280;8384;47.996;7.786;2023-02-12T14:08:04;100529.25;;;11.17;55.46
16544;BME280;8384;47.996;7.786;2023-02-12T14:10:39;100541.75;;;11.82;54.13
16544;BME280;8384;47.996;7.786;2023-02-12T14:13:21;100537.94;;;11.83;53.32
16544;BME280;8384;47.996;7.786;2023-02-12T14:15:53;100538.91;;;11.95;53.50
16544;BME280;8384;47.996;7.786;2023-02-12T14:23:45;100536.97;;;12.89;50.99
16544;BME280;8384;47.996;7.786;2023-02-12T14:26:14;100537.63;;;13.03;50.26
16544;BME280;8384;47.996;7.786;2023-02-12T14:36:42;100538.78;;;14.45;46.40
16544;BME280;8384;47.996;7.786;2023-02-12T14:41:43;100523.84;;;14.52;45.26
16544;BME280;8384;47.996;7.786;2023-02-12T14:47:02;100525.66;;;14.23;46.12
16544;BME280;8384;47.996;7.786;2023-02-12T14:49:33;100529.75;;;14.20;46.80
16544;BME280;8384;47.996;7.786;2023-02-12T14:54:42;100531.19;;;13.99;47.43
16544;BME280;8384;47.996;7.786;2023-02-12T14:57:33;100525.81;;;12.72;50.45
16544;BME280;8384;47.996;7.786;2023-02-12T15:02:46;100510.97;;;13.34;48.99
16544;BME280;8384;47.996;7.786;2023-02-12T15:05:18;100514.00;;;13.80;47.61
16544;BME280;8384;47.996;7.786;2023-02-12T15:07:50;100517.22;;;14.01;47.24
16544;BME280;8384;47.996;7.786;2023-02-12T15:10:33;100523.41;;;14.61;46.00
16544;BME280;8384;47.996;7.786;2023-02-12T15:16:07;100531.59;;;15.13;44.95
16544;BME280;8384;47.996;7.786;2023-02-12T15:21:17;100530.19;;;16.13;42.82
16544;BME280;8384;47.996;7.786;2023-02-12T15:23:45;100532.78;;;16.42;41.88